Terminal Aerodrome Forecast
Issued by NWS King Salmon, AK

Home | Current Version | Previous Version | Text Only | Print | Product List | Glossary On
Versions: 1 2 3 4 5 6 7 8 9 10 11 12 13 14 15 16 17
000
FTAK31 PANC 220755 AAA
TAFAKN
TAF AMD
PAKN 220755Z 2208/2306 16022G30KT 3SM -SN BR SCT015 OVC020
      WS020/16045KT
      TEMPO 2208/2210 1 1/2SM -SN BR BKN008
     FM221000 19010KT 5SM -SN BR SCT015 BKN025
     FM221800 18008KT P6SM BKN050=

USA.gov is the U.S. government's official web portal to all federal, state and local government web resources and services.